sensor_id;sensor_type;location;lat;lon;timestamp;temperature;humidity
20438;DHT22;17436;50.338;8.810;2022-10-16T00:02:24;16.00;99.90
20438;DHT22;17436;50.338;8.810;2022-10-16T00:04:51;15.90;99.90
20438;DHT22;17436;50.338;8.810;2022-10-16T00:07:18;15.90;99.90
20438;DHT22;17436;50.338;8.810;2022-10-16T00:09:45;15.90;99.90
20438;DHT22;17436;50.338;8.810;2022-10-16T00:12:12;15.90;99.90
20438;DHT22;17436;50.338;8.810;2022-10-16T00:14:40;15.80;99.90
20438;DHT22;17436;50.338;8.810;2022-10-16T00:17:09;15.80;99.90
20438;DHT22;17436;50.338;8.810;2022-10-16T00:19:35;15.80;99.90
20438;DHT22;17436;50.338;8.810;2022-10-16T00:22:04;15.60;99.90
20438;DHT22;17436;50.338;8.810;2022-10-16T00:24:31;15.60;99.90
20438;DHT22;17436;50.338;8.810;2022-10-16T00:26:58;15.60;99.90
20438;DHT22;17436;50.338;8.810;2022-10-16T00:29:25;15.60;99.90
20438;DHT22;17436;50.338;8.810;2022-10-16T00:31:53;15.60;99.90
20438;DHT22;17436;50.338;8.810;2022-10-16T00:34:19;15.70;99.90
20438;DHT22;17436;50.338;8.810;2022-10-16T00:36:46;15.70;99.90
20438;DHT22;17436;50.338;8.810;2022-10-16T00:39:13;15.60;99.90
20438;DHT22;17436;50.338;8.810;2022-10-16T00:41:40;15.60;99.90
20438;DHT22;17436;50.338;8.810;2022-10-16T00:47:09;15.70;99.90
20438;DHT22;17436;50.338;8.810;2022-10-16T00:49:36;15.80;99.90
20438;DHT22;17436;50.338;8.810;2022-10-16T00:52:03;15.80;99.90
20438;DHT22;17436;50.338;8.810;2022-10-16T00:54:32;15.80;99.90
20438;DHT22;17436;50.338;8.810;2022-10-16T00:57:01;15.70;99.90
20438;DHT22;17436;50.338;8.810;2022-10-16T00:59:31;15.70;99.90
20438;DHT22;17436;50.338;8.810;2022-10-16T01:01:59;15.70;99.90
20438;DHT22;17436;50.338;8.810;2022-10-16T01:04:31;15.80;99.90
20438;DHT22;17436;50.338;8.810;2022-10-16T01:07:06;15.80;99.90
20438;DHT22;17436;50.338;8.810;2022-10-16T01:09:45;15.80;99.90
20438;DHT22;17436;50.338;8.810;2022-10-16T01:12:15;15.80;99.90
20438;DHT22;17436;50.338;8.810;2022-10-16T01:14:51;15.80;99.90
20438;DHT22;17436;50.338;8.810;2022-10-16T01:17:21;15.80;99.90
20438;DHT22;17436;50.338;8.810;2022-10-16T01:20:06;15.70;99.90
20438;DHT22;17436;50.338;8.810;2022-10-16T01:22:43;15.70;99.90
20438;DHT22;17436;50.338;8.810;2022-10-16T01:25:20;15.70;99.90
20438;DHT22;17436;50.338;8.810;2022-10-16T01:27:52;15.70;99.90
20438;DHT22;17436;50.338;8.810;2022-10-16T01:30:24;15.70;99.90
20438;DHT22;17436;50.338;8.810;2022-10-16T01:32:59;15.80;99.90
20438;DHT22;17436;50.338;8.810;2022-10-16T01:35:32;15.80;99.90
20438;DHT22;17436;50.338;8.810;2022-10-16T01:38:04;15.70;99.90
20438;DHT22;17436;50.338;8.810;2022-10-16T01:40:37;15.70;99.90
20438;DHT22;17436;50.338;8.810;2022-10-16T01:43:12;15.80;99.90
20438;DHT22;17436;50.338;8.810;2022-10-16T01:45:46;15.90;99.90
20438;DHT22;17436;50.338;8.810;2022-10-16T01:48:17;15.90;99.90
20438;DHT22;17436;50.338;8.810;2022-10-16T01:50:53;16.00;99.90
20438;DHT22;17436;50.338;8.810;2022-10-16T01:53:22;16.00;99.90
20438;DHT22;17436;50.338;8.810;2022-10-16T01:55:52;15.80;99.90
20438;DHT22;17436;50.338;8.810;2022-10-16T01:58:24;15.80;99.90
20438;DHT22;17436;50.338;8.810;2022-10-16T02:00:53;15.70;99.90
20438;DHT22;17436;50.338;8.810;2022-10-16T02:03:21;15.90;99.90
20438;DHT22;17436;50.338;8.810;2022-10-16T02:05:50;15.90;99.90
20438;DHT22;17436;50.338;8.810;2022-10-16T02:08:18;16.00;99.90
20438;DHT22;17436;50.338;8.810;2022-10-16T02:10:47;16.10;99.90
20438;DHT22;17436;50.338;8.810;2022-10-16T02:13:19;16.10;99.90
20438;DHT22;17436;50.338;8.810;2022-10-16T02:15:49;16.10;99.90
20438;DHT22;17436;50.338;8.810;2022-10-16T02:18:16;16.10;99.90
20438;DHT22;17436;50.338;8.810;2022-10-16T02:20:48;16.00;99.90
20438;DHT22;17436;50.338;8.810;2022-10-16T02:23:22;16.10;99.90
20438;DHT22;17436;50.338;8.810;2022-10-16T02:25:50;16.00;99.90
20438;DHT22;17436;50.338;8.810;2022-10-16T02:28:21;15.90;99.90
20438;DHT22;17436;50.338;8.810;2022-10-16T02:30:52;15.90;99.90
20438;DHT22;17436;50.338;8.810;2022-10-16T02:33:24;15.90;99.90
20438;DHT22;17436;50.338;8.810;2022-10-16T02:35:52;16.00;99.90
20438;DHT22;17436;50.338;8.810;2022-10-16T02:38:20;15.90;99.90
20438;DHT22;17436;50.338;8.810;2022-10-16T02:40:48;15.90;99.90
20438;DHT22;17436;50.338;8.810;2022-10-16T02:43:15;16.00;99.90
20438;DHT22;17436;50.338;8.810;2022-10-16T02:45:42;16.10;99.90
20438;DHT22;17436;50.338;8.810;2022-10-16T02:48:10;16.20;99.90
20438;DHT22;17436;50.338;8.810;2022-10-16T02:50:37;16.10;99.90
20438;DHT22;17436;50.338;8.810;2022-10-16T02:53:04;16.10;99.90
20438;DHT22;17436;50.338;8.810;2022-10-16T02:55:30;16.20;99.90
20438;DHT22;17436;50.338;8.810;2022-10-16T02:57:58;16.20;99.90
20438;DHT22;17436;50.338;8.810;2022-10-16T03:00:25;16.20;99.90
20438;DHT22;17436;50.338;8.810;2022-10-16T03:02:51;16.30;99.90
20438;DHT22;17436;50.338;8.810;2022-10-16T03:05:19;16.20;99.90
20438;DHT22;17436;50.338;8.810;2022-10-16T03:07:46;16.20;99.90
20438;DHT22;17436;50.338;8.810;2022-10-16T03:10:13;16.20;99.90
20438;DHT22;17436;50.338;8.810;2022-10-16T03:12:40;16.10;99.90
20438;DHT22;17436;50.338;8.810;2022-10-16T03:15:08;16.20;99.90
20438;DHT22;17436;50.338;8.810;2022-10-16T03:17:35;16.10;99.90
20438;DHT22;17436;50.338;8.810;2022-10-16T03:20:03;16.10;99.90
20438;DHT22;17436;50.338;8.810;2022-10-16T03:22:31;16.10;99.90
20438;DHT22;17436;50.338;8.810;2022-10-16T03:24:58;16.10;99.90
20438;DHT22;17436;50.338;8.810;2022-10-16T03:27:25;16.10;99.90
20438;DHT22;17436;50.338;8.810;2022-10-16T03:29:51;16.10;99.90
20438;DHT22;17436;50.338;8.810;2022-10-16T03:32:18;16.10;99.90
20438;DHT22;17436;50.338;8.810;2022-10-16T03:34:45;16.00;99.90
20438;DHT22;17436;50.338;8.810;2022-10-16T03:37:12;16.10;99.90
20438;DHT22;17436;50.338;8.810;2022-10-16T03:39:40;16.10;99.90
20438;DHT22;17436;50.338;8.810;2022-10-16T03:42:07;16.10;99.90
20438;DHT22;17436;50.338;8.810;2022-10-16T03:44:34;16.20;99.90
20438;DHT22;17436;50.338;8.810;2022-10-16T03:47:00;16.20;99.90
20438;DHT22;17436;50.338;8.810;2022-10-16T03:49:27;16.30;99.90
20438;DHT22;17436;50.338;8.810;2022-10-16T03:51:54;16.30;99.90
20438;DHT22;17436;50.338;8.810;2022-10-16T03:54:20;16.30;99.90
20438;DHT22;17436;50.338;8.810;2022-10-16T03:56:49;16.40;99.90
20438;DHT22;17436;50.338;8.810;2022-10-16T03:59:16;16.30;99.90
20438;DHT22;17436;50.338;8.810;2022-10-16T04:01:43;16.30;99.90
20438;DHT22;17436;50.338;8.810;2022-10-16T04:04:09;16.30;99.90
20438;DHT22;17436;50.338;8.810;2022-10-16T04:06:36;16.30;99.90
20438;DHT22;17436;50.338;8.810;2022-10-16T04:09:03;16.40;99.90
20438;DHT22;17436;50.338;8.810;2022-10-16T04:11:30;16.40;99.90
20438;DHT22;17436;50.338;8.810;2022-10-16T04:13:58;16.40;99.90
20438;DHT22;17436;50.338;8.810;2022-10-16T04:16:24;16.40;99.90
20438;DHT22;17436;50.338;8.810;2022-10-16T04:18:51;16.40;99.90
20438;DHT22;17436;50.338;8.810;2022-10-16T04:21:18;16.30;99.90
20438;DHT22;17436;50.338;8.810;2022-10-16T04:23:44;16.30;99.90
20438;DHT22;17436;50.338;8.810;2022-10-16T04:26:11;16.30;99.90
20438;DHT22;17436;50.338;8.810;2022-10-16T04:28:38;16.30;99.90
20438;DHT22;17436;50.338;8.810;2022-10-16T04:31:07;16.30;99.90
20438;DHT22;17436;50.338;8.810;2022-10-16T04:33:34;16.30;99.90
20438;DHT22;17436;50.338;8.810;2022-10-16T04:36:03;16.20;99.90
20438;DHT22;17436;50.338;8.810;2022-10-16T04:38:30;16.20;99.90
20438;DHT22;17436;50.338;8.810;2022-10-16T04:40:57;16.20;99.90
20438;DHT22;17436;50.338;8.810;2022-10-16T04:43:23;16.20;99.90
20438;DHT22;17436;50.338;8.810;2022-10-16T04:45:51;16.10;99.90
20438;DHT22;17436;50.338;8.810;2022-10-16T04:48:21;16.10;99.90
20438;DHT22;17436;50.338;8.810;2022-10-16T04:50:48;16.20;99.90
20438;DHT22;17436;50.338;8.810;2022-10-16T04:53:15;16.10;99.90
20438;DHT22;17436;50.338;8.810;2022-10-16T04:55:42;16.10;99.90
20438;DHT22;17436;50.338;8.810;2022-10-16T04:58:11;16.10;99.90
20438;DHT22;17436;50.338;8.810;2022-10-16T05:00:38;16.10;99.90
20438;DHT22;17436;50.338;8.810;2022-10-16T05:03:05;16.00;99.90
20438;DHT22;17436;50.338;8.810;2022-10-16T05:05:35;16.10;99.90
20438;DHT22;17436;50.338;8.810;2022-10-16T05:08:03;16.20;99.90
20438;DHT22;17436;50.338;8.810;2022-10-16T05:10:30;16.20;99.90
20438;DHT22;17436;50.338;8.810;2022-10-16T05:12:56;16.20;99.90
20438;DHT22;17436;50.338;8.810;2022-10-16T05:15:23;16.20;99.90
20438;DHT22;17436;50.338;8.810;2022-10-16T05:17:53;16.20;99.90
20438;DHT22;17436;50.338;8.810;2022-10-16T05:20:20;16.20;99.90
20438;DHT22;17436;50.338;8.810;2022-10-16T05:22:48;16.30;99.90
20438;DHT22;17436;50.338;8.810;2022-10-16T05:25:15;16.40;99.90
20438;DHT22;17436;50.338;8.810;2022-10-16T05:27:42;16.30;99.90
20438;DHT22;17436;50.338;8.810;2022-10-16T05:30:09;16.30;99.90
20438;DHT22;17436;50.338;8.810;2022-10-16T05:32:36;16.30;99.90
20438;DHT22;17436;50.338;8.810;2022-10-16T05:35:03;16.20;99.90
20438;DHT22;17436;50.338;8.810;2022-10-16T05:37:30;16.10;99.90
20438;DHT22;17436;50.338;8.810;2022-10-16T05:39:58;16.20;99.90
20438;DHT22;17436;50.338;8.810;2022-10-16T05:42:24;16.20;99.90
20438;DHT22;17436;50.338;8.810;2022-10-16T05:44:51;16.20;99.90
20438;DHT22;17436;50.338;8.810;2022-10-16T05:47:18;16.10;99.90
20438;DHT22;17436;50.338;8.810;2022-10-16T05:49:46;16.00;99.90
20438;DHT22;17436;50.338;8.810;2022-10-16T05:52:13;16.10;99.90
20438;DHT22;17436;50.338;8.810;2022-10-16T05:54:39;16.10;99.90
20438;DHT22;17436;50.338;8.810;2022-10-16T05:57:07;16.20;99.90
20438;DHT22;17436;50.338;8.810;2022-10-16T05:59:34;16.10;99.90
20438;DHT22;17436;50.338;8.810;2022-10-16T06:02:01;16.20;99.90
20438;DHT22;17436;50.338;8.810;2022-10-16T06:04:27;16.20;99.90
20438;DHT22;17436;50.338;8.810;2022-10-16T06:06:58;16.20;99.90
20438;DHT22;17436;50.338;8.810;2022-10-16T06:09:25;16.20;99.90
20438;DHT22;17436;50.338;8.810;2022-10-16T06:11:52;16.20;99.90
20438;DHT22;17436;50.338;8.810;2022-10-16T06:14:21;16.20;99.90
20438;DHT22;17436;50.338;8.810;2022-10-16T06:16:47;16.30;99.90
20438;DHT22;17436;50.338;8.810;2022-10-16T06:19:14;16.30;99.90
20438;DHT22;17436;50.338;8.810;2022-10-16T06:21:41;16.30;99.90
20438;DHT22;17436;50.338;8.810;2022-10-16T06:24:09;16.30;99.90
20438;DHT22;17436;50.338;8.810;2022-10-16T06:26:36;16.30;99.90
20438;DHT22;17436;50.338;8.810;2022-10-16T06:29:03;16.30;99.90
20438;DHT22;17436;50.338;8.810;2022-10-16T06:31:31;16.40;99.90
20438;DHT22;17436;50.338;8.810;2022-10-16T06:33:59;16.20;99.90
20438;DHT22;17436;50.338;8.810;2022-10-16T06:36:26;16.30;99.90
20438;DHT22;17436;50.338;8.810;2022-10-16T06:38:53;16.30;99.90
20438;DHT22;17436;50.338;8.810;2022-10-16T06:41:21;16.30;99.90
20438;DHT22;17436;50.338;8.810;2022-10-16T06:43:49;16.30;99.90
20438;DHT22;17436;50.338;8.810;2022-10-16T06:46:17;16.30;99.90
20438;DHT22;17436;50.338;8.810;2022-10-16T06:48:46;16.40;99.90
20438;DHT22;17436;50.338;8.810;2022-10-16T06:51:14;16.40;99.90
20438;DHT22;17436;50.338;8.810;2022-10-16T06:53:43;16.40;99.90
20438;DHT22;17436;50.338;8.810;2022-10-16T06:56:12;16.40;99.90
20438;DHT22;17436;50.338;8.810;2022-10-16T06:58:39;16.40;99.90
20438;DHT22;17436;50.338;8.810;2022-10-16T07:01:07;16.40;99.90
20438;DHT22;17436;50.338;8.810;2022-10-16T07:03:36;16.30;99.90
20438;DHT22;17436;50.338;8.810;2022-10-16T07:06:06;16.30;99.90
20438;DHT22;17436;50.338;8.810;2022-10-16T07:08:34;16.40;99.90
20438;DHT22;17436;50.338;8.810;2022-10-16T07:11:02;16.40;99.90
20438;DHT22;17436;50.338;8.810;2022-10-16T07:13:29;16.50;99.90
20438;DHT22;17436;50.338;8.810;2022-10-16T07:15:55;16.50;99.90
20438;DHT22;17436;50.338;8.810;2022-10-16T07:18:22;16.50;99.90
20438;DHT22;17436;50.338;8.810;2022-10-16T07:20:52;16.50;99.90
20438;DHT22;17436;50.338;8.810;2022-10-16T07:23:20;16.50;99.90
20438;DHT22;17436;50.338;8.810;2022-10-16T07:25:53;16.40;99.90
20438;DHT22;17436;50.338;8.810;2022-10-16T07:28:20;16.30;99.90
20438;DHT22;17436;50.338;8.810;2022-10-16T07:30:47;16.20;99.90
20438;DHT22;17436;50.338;8.810;2022-10-16T07:33:14;16.20;99.90
20438;DHT22;17436;50.338;8.810;2022-10-16T07:35:47;16.30;99.90
20438;DHT22;17436;50.338;8.810;2022-10-16T07:38:14;16.30;99.90
20438;DHT22;17436;50.338;8.810;2022-10-16T07:40:42;16.40;99.90
20438;DHT22;17436;50.338;8.810;2022-10-16T07:43:09;16.40;99.90
20438;DHT22;17436;50.338;8.810;2022-10-16T07:45:36;16.40;99.90
20438;DHT22;17436;50.338;8.810;2022-10-16T07:48:03;16.50;99.90
20438;DHT22;17436;50.338;8.810;2022-10-16T07:50:30;16.40;99.90
20438;DHT22;17436;50.338;8.810;2022-10-16T07:52:56;16.60;99.90
20438;DHT22;17436;50.338;8.810;2022-10-16T07:55:23;16.60;99.90
20438;DHT22;17436;50.338;8.810;2022-10-16T07:57:51;16.50;99.90
20438;DHT22;17436;50.338;8.810;2022-10-16T08:00:18;16.60;99.90
20438;DHT22;17436;50.338;8.810;2022-10-16T08:02:44;16.60;99.90
20438;DHT22;17436;50.338;8.810;2022-10-16T08:05:11;16.60;99.90
20438;DHT22;17436;50.338;8.810;2022-10-16T08:07:38;16.50;99.90
20438;DHT22;17436;50.338;8.810;2022-10-16T08:10:06;16.50;99.90
20438;DHT22;17436;50.338;8.810;2022-10-16T08:12:34;16.60;99.90
20438;DHT22;17436;50.338;8.810;2022-10-16T08:15:02;16.60;99.90
20438;DHT22;17436;50.338;8.810;2022-10-16T08:17:29;16.70;99.90
20438;DHT22;17436;50.338;8.810;2022-10-16T08:19:55;16.60;99.90
20438;DHT22;17436;50.338;8.810;2022-10-16T08:22:22;16.60;99.90
20438;DHT22;17436;50.338;8.810;2022-10-16T08:24:49;16.70;99.90
20438;DHT22;17436;50.338;8.810;2022-10-16T08:27:16;16.80;99.90
20438;DHT22;17436;50.338;8.810;2022-10-16T08:29:43;16.70;99.90
20438;DHT22;17436;50.338;8.810;2022-10-16T08:32:11;16.80;99.90
20438;DHT22;17436;50.338;8.810;2022-10-16T08:34:37;16.70;99.90
20438;DHT22;17436;50.338;8.810;2022-10-16T08:37:11;16.60;99.90
20438;DHT22;17436;50.338;8.810;2022-10-16T08:39:39;16.60;99.90
20438;DHT22;17436;50.338;8.810;2022-10-16T08:42:20;16.70;99.90
20438;DHT22;17436;50.338;8.810;2022-10-16T08:47:49;16.80;99.90
20438;DHT22;17436;50.338;8.810;2022-10-16T08:50:23;16.90;99.90
20438;DHT22;17436;50.338;8.810;2022-10-16T08:52:51;16.90;99.90
20438;DHT22;17436;50.338;8.810;2022-10-16T08:55:30;16.90;99.90
20438;DHT22;17436;50.338;8.810;2022-10-16T08:57:58;16.80;99.90
20438;DHT22;17436;50.338;8.810;2022-10-16T09:00:26;16.80;99.90
20438;DHT22;17436;50.338;8.810;2022-10-16T09:03:02;16.70;99.90
20438;DHT22;17436;50.338;8.810;2022-10-16T09:05:49;16.80;99.90
20438;DHT22;17436;50.338;8.810;2022-10-16T09:08:25;16.80;99.90
20438;DHT22;17436;50.338;8.810;2022-10-16T09:10:58;16.80;99.90
20438;DHT22;17436;50.338;8.810;2022-10-16T09:13:29;16.90;99.90
20438;DHT22;17436;50.338;8.810;2022-10-16T09:16:06;16.90;99.90
20438;DHT22;17436;50.338;8.810;2022-10-16T09:18:42;16.80;99.90
20438;DHT22;17436;50.338;8.810;2022-10-16T09:21:15;16.90;99.90
20438;DHT22;17436;50.338;8.810;2022-10-16T09:23:45;16.90;99.90
20438;DHT22;17436;50.338;8.810;2022-10-16T09:26:13;17.00;99.90
20438;DHT22;17436;50.338;8.810;2022-10-16T09:28:41;17.00;99.90
20438;DHT22;17436;50.338;8.810;2022-10-16T09:31:15;17.10;99.90
20438;DHT22;17436;50.338;8.810;2022-10-16T09:33:44;17.10;99.90
20438;DHT22;17436;50.338;8.810;2022-10-16T09:36:12;17.10;99.90
20438;DHT22;17436;50.338;8.810;2022-10-16T09:38:39;17.10;99.90
20438;DHT22;17436;50.338;8.810;2022-10-16T09:41:15;17.10;99.90
20438;DHT22;17436;50.338;8.810;2022-10-16T09:43:47;17.10;99.90
20438;DHT22;17436;50.338;8.810;2022-10-16T09:46:26;17.20;99.90
20438;DHT22;17436;50.338;8.810;2022-10-16T09:48:56;17.10;99.90
20438;DHT22;17436;50.338;8.810;2022-10-16T09:51:25;17.20;99.90
20438;DHT22;17436;50.338;8.810;2022-10-16T09:53:55;17.20;99.90
20438;DHT22;17436;50.338;8.810;2022-10-16T09:56:24;17.30;99.90
20438;DHT22;17436;50.338;8.810;2022-10-16T09:58:52;17.40;99.90
20438;DHT22;17436;50.338;8.810;2022-10-16T10:01:21;17.50;99.90
20438;DHT22;17436;50.338;8.810;2022-10-16T10:03:50;17.40;99.90
20438;DHT22;17436;50.338;8.810;2022-10-16T10:06:23;17.40;99.90
20438;DHT22;17436;50.338;8.810;2022-10-16T10:08:57;17.30;99.90
20438;DHT22;17436;50.338;8.810;2022-10-16T10:11:52;17.40;99.90
20438;DHT22;17436;50.338;8.810;2022-10-16T10:14:25;17.60;99.90
20438;DHT22;17436;50.338;8.810;2022-10-16T10:17:01;17.60;99.90
20438;DHT22;17436;50.338;8.810;2022-10-16T10:19:28;17.50;99.90
20438;DHT22;17436;50.338;8.810;2022-10-16T10:21:56;17.50;99.90
20438;DHT22;17436;50.338;8.810;2022-10-16T10:24:23;17.60;99.90
20438;DHT22;17436;50.338;8.810;2022-10-16T10:26:56;17.60;99.90
20438;DHT22;17436;50.338;8.810;2022-10-16T10:29:36;17.70;99.90
20438;DHT22;17436;50.338;8.810;2022-10-16T10:32:21;17.80;99.90
20438;DHT22;17436;50.338;8.810;2022-10-16T10:35:02;18.10;99.90
20438;DHT22;17436;50.338;8.810;2022-10-16T10:37:50;18.40;99.90
20438;DHT22;17436;50.338;8.810;2022-10-16T10:40:28;18.70;99.90
20438;DHT22;17436;50.338;8.810;2022-10-16T10:43:02;18.60;99.90
20438;DHT22;17436;50.338;8.810;2022-10-16T10:45:38;18.50;99.90
20438;DHT22;17436;50.338;8.810;2022-10-16T10:48:20;18.50;99.90
20438;DHT22;17436;50.338;8.810;2022-10-16T10:50:54;18.60;99.90
20438;DHT22;17436;50.338;8.810;2022-10-16T10:53:35;18.80;99.90
20438;DHT22;17436;50.338;8.810;2022-10-16T10:56:15;18.70;99.90
20438;DHT22;17436;50.338;8.810;2022-10-16T10:59:19;18.90;99.90
20438;DHT22;17436;50.338;8.810;2022-10-16T11:01:51;19.00;99.90
20438;DHT22;17436;50.338;8.810;2022-10-16T11:04:55;19.10;99.90
20438;DHT22;17436;50.338;8.810;2022-10-16T11:07:26;19.10;99.90
20438;DHT22;17436;50.338;8.810;2022-10-16T11:09:58;19.20;99.90
20438;DHT22;17436;50.338;8.810;2022-10-16T11:12:30;19.30;99.90
20438;DHT22;17436;50.338;8.810;2022-10-16T11:15:03;19.30;99.90
20438;DHT22;17436;50.338;8.810;2022-10-16T11:17:35;19.50;99.90
20438;DHT22;17436;50.338;8.810;2022-10-16T11:20:10;19.70;99.90
20438;DHT22;17436;50.338;8.810;2022-10-16T11:22:39;19.50;99.90
20438;DHT22;17436;50.338;8.810;2022-10-16T11:25:15;19.70;99.90
20438;DHT22;17436;50.338;8.810;2022-10-16T11:27:44;19.70;99.90
20438;DHT22;17436;50.338;8.810;2022-10-16T11:30:17;19.70;99.90
20438;DHT22;17436;50.338;8.810;2022-10-16T11:32:56;19.70;99.90
20438;DHT22;17436;50.338;8.810;2022-10-16T11:35:36;19.80;99.90
20438;DHT22;17436;50.338;8.810;2022-10-16T11:38:10;19.70;99.90
20438;DHT22;17436;50.338;8.810;2022-10-16T11:40:43;19.70;99.90
20438;DHT22;17436;50.338;8.810;2022-10-16T11:43:20;19.70;99.90
20438;DHT22;17436;50.338;8.810;2022-10-16T11:45:51;19.70;99.90
20438;DHT22;17436;50.338;8.810;2022-10-16T11:48:24;19.80;99.90
20438;DHT22;17436;50.338;8.810;2022-10-16T11:50:56;19.90;99.90
20438;DHT22;17436;50.338;8.810;2022-10-16T11:53:34;19.80;99.90
20438;DHT22;17436;50.338;8.810;2022-10-16T11:56:03;19.60;99.90
20438;DHT22;17436;50.338;8.810;2022-10-16T11:58:35;19.60;99.90
20438;DHT22;17436;50.338;8.810;2022-10-16T12:01:15;19.70;99.90
20438;DHT22;17436;50.338;8.810;2022-10-16T12:03:47;19.60;99.90
20438;DHT22;17436;50.338;8.810;2022-10-16T12:06:32;19.50;99.90
20438;DHT22;17436;50.338;8.810;2022-10-16T12:09:00;19.60;99.90
20438;DHT22;17436;50.338;8.810;2022-10-16T12:11:38;19.50;99.90
20438;DHT22;17436;50.338;8.810;2022-10-16T12:14:20;19.70;99.90
20438;DHT22;17436;50.338;8.810;2022-10-16T12:16:56;19.80;99.90
20438;DHT22;17436;50.338;8.810;2022-10-16T12:19:25;19.80;99.90
20438;DHT22;17436;50.338;8.810;2022-10-16T12:21:55;19.60;99.90
20438;DHT22;17436;50.338;8.810;2022-10-16T12:24:35;19.50;99.90
20438;DHT22;17436;50.338;8.810;2022-10-16T12:27:05;19.60;99.90
20438;DHT22;17436;50.338;8.810;2022-10-16T12:29:35;19.60;99.90
20438;DHT22;17436;50.338;8.810;2022-10-16T12:32:04;19.70;99.90
20438;DHT22;17436;50.338;8.810;2022-10-16T12:34:37;19.60;99.90
20438;DHT22;17436;50.338;8.810;2022-10-16T12:37:11;19.60;99.90
20438;DHT22;17436;50.338;8.810;2022-10-16T12:39:39;19.70;99.90
20438;DHT22;17436;50.338;8.810;2022-10-16T12:42:21;19.70;99.90
20438;DHT22;17436;50.338;8.810;2022-10-16T12:44:48;19.70;99.90
20438;DHT22;17436;50.338;8.810;2022-10-16T12:47:23;19.70;99.90
20438;DHT22;17436;50.338;8.810;2022-10-16T12:49:51;19.60;99.90
20438;DHT22;17436;50.338;8.810;2022-10-16T12:52:28;19.60;99.90
20438;DHT22;17436;50.338;8.810;2022-10-16T12:54:56;19.50;99.90
20438;DHT22;17436;50.338;8.810;2022-10-16T12:57:38;19.60;99.90
20438;DHT22;17436;50.338;8.810;2022-10-16T13:00:13;19.60;99.90
20438;DHT22;17436;50.338;8.810;2022-10-16T13:03:00;19.70;99.90
20438;DHT22;17436;50.338;8.810;2022-10-16T13:05:40;19.70;99.90
20438;DHT22;17436;50.338;8.810;2022-10-16T13:08:43;19.80;99.90
20438;DHT22;17436;50.338;8.810;2022-10-16T13:11:20;19.80;99.90
20438;DHT22;17436;50.338;8.810;2022-10-16T13:14:07;19.70;99.80
20438;DHT22;17436;50.338;8.810;2022-10-16T13:16:46;19.60;99.80
20438;DHT22;17436;50.338;8.810;2022-10-16T13:19:23;19.60;99.90
20438;DHT22;17436;50.338;8.810;2022-10-16T13:21:57;19.60;99.90
20438;DHT22;17436;50.338;8.810;2022-10-16T13:24:42;19.60;99.90
20438;DHT22;17436;50.338;8.810;2022-10-16T13:27:18;19.70;99.90
20438;DHT22;17436;50.338;8.810;2022-10-16T13:29:53;19.60;99.90
20438;DHT22;17436;50.338;8.810;2022-10-16T13:32:21;19.50;99.90
20438;DHT22;17436;50.338;8.810;2022-10-16T13:34:48;19.40;99.90
20438;DHT22;17436;50.338;8.810;2022-10-16T13:37:17;19.40;99.90
20438;DHT22;17436;50.338;8.810;2022-10-16T13:39:45;19.40;99.00
20438;DHT22;17436;50.338;8.810;2022-10-16T13:42:14;19.40;99.60
20438;DHT22;17436;50.338;8.810;2022-10-16T13:44:44;19.40;99.70
20438;DHT22;17436;50.338;8.810;2022-10-16T13:47:18;19.40;99.80
20438;DHT22;17436;50.338;8.810;2022-10-16T13:49:47;19.40;99.90
20438;DHT22;17436;50.338;8.810;2022-10-16T13:52:18;19.30;99.90
20438;DHT22;17436;50.338;8.810;2022-10-16T13:54:45;19.30;98.90
20438;DHT22;17436;50.338;8.810;2022-10-16T13:57:13;19.30;99.90
20438;DHT22;17436;50.338;8.810;2022-10-16T13:59:40;19.20;99.90
20438;DHT22;17436;50.338;8.810;2022-10-16T14:02:20;19.30;99.90
20438;DHT22;17436;50.338;8.810;2022-10-16T14:04:48;19.30;99.90
20438;DHT22;17436;50.338;8.810;2022-10-16T14:07:20;19.30;99.90
20438;DHT22;17436;50.338;8.810;2022-10-16T14:09:50;19.30;99.90
20438;DHT22;17436;50.338;8.810;2022-10-16T14:12:18;19.30;99.90
20438;DHT22;17436;50.338;8.810;2022-10-16T14:14:46;19.30;99.90
20438;DHT22;17436;50.338;8.810;2022-10-16T14:17:14;19.30;99.90
20438;DHT22;17436;50.338;8.810;2022-10-16T14:19:46;19.30;99.90
20438;DHT22;17436;50.338;8.810;2022-10-16T14:22:28;19.20;99.90
20438;DHT22;17436;50.338;8.810;2022-10-16T14:24:55;19.30;99.90
20438;DHT22;17436;50.338;8.810;2022-10-16T14:27:29;19.30;99.90
20438;DHT22;17436;50.338;8.810;2022-10-16T14:30:16;19.30;99.90
20438;DHT22;17436;50.338;8.810;2022-10-16T14:32:54;19.20;99.90
20438;DHT22;17436;50.338;8.810;2022-10-16T14:35:28;19.20;99.90
20438;DHT22;17436;50.338;8.810;2022-10-16T14:37:57;19.20;99.90
20438;DHT22;17436;50.338;8.810;2022-10-16T14:40:26;19.20;99.90
20438;DHT22;17436;50.338;8.810;2022-10-16T14:42:53;19.20;99.90
20438;DHT22;17436;50.338;8.810;2022-10-16T14:45:21;19.20;99.90
20438;DHT22;17436;50.338;8.810;2022-10-16T14:47:51;19.20;99.90
20438;DHT22;17436;50.338;8.810;2022-10-16T14:50:19;19.20;99.90
20438;DHT22;17436;50.338;8.810;2022-10-16T14:52:47;19.20;99.90
20438;DHT22;17436;50.338;8.810;2022-10-16T14:55:14;19.20;99.90
20438;DHT22;17436;50.338;8.810;2022-10-16T14:57:43;19.20;99.90
20438;DHT22;17436;50.338;8.810;2022-10-16T15:00:16;19.20;99.90
20438;DHT22;17436;50.338;8.810;2022-10-16T15:02:44;19.20;99.90
20438;DHT22;17436;50.338;8.810;2022-10-16T15:05:14;19.20;99.90
20438;DHT22;17436;50.338;8.810;2022-10-16T15:07:41;19.20;99.90
20438;DHT22;17436;50.338;8.810;2022-10-16T15:10:10;19.10;99.90
20438;DHT22;17436;50.338;8.810;2022-10-16T15:12:37;19.10;99.90
20438;DHT22;17436;50.338;8.810;2022-10-16T15:15:21;19.10;99.90
20438;DHT22;17436;50.338;8.810;2022-10-16T15:17:50;19.10;99.90
20438;DHT22;17436;50.338;8.810;2022-10-16T15:20:18;19.10;99.90
20438;DHT22;17436;50.338;8.810;2022-10-16T15:22:44;19.10;99.90
20438;DHT22;17436;50.338;8.810;2022-10-16T15:25:29;19.20;99.90
20438;DHT22;17436;50.338;8.810;2022-10-16T15:27:56;19.20;99.90
20438;DHT22;17436;50.338;8.810;2022-10-16T15:30:23;19.10;99.90
20438;DHT22;17436;50.338;8.810;2022-10-16T15:32:50;19.10;99.90
20438;DHT22;17436;50.338;8.810;2022-10-16T15:35:16;19.10;99.90
20438;DHT22;17436;50.338;8.810;2022-10-16T15:37:43;19.00;99.90
20438;DHT22;17436;50.338;8.810;2022-10-16T15:40:10;19.00;99.90
20438;DHT22;17436;50.338;8.810;2022-10-16T15:42:38;19.00;99.90
20438;DHT22;17436;50.338;8.810;2022-10-16T15:45:06;19.00;99.90
20438;DHT22;17436;50.338;8.810;2022-10-16T15:47:33;18.90;99.90
20438;DHT22;17436;50.338;8.810;2022-10-16T15:50:00;18.80;99.90
20438;DHT22;17436;50.338;8.810;2022-10-16T15:52:27;18.70;99.90
20438;DHT22;17436;50.338;8.810;2022-10-16T15:54:54;18.70;99.90
20438;DHT22;17436;50.338;8.810;2022-10-16T15:57:21;18.70;99.90